createdAt,value
2023-04-09T00:00:25.369Z,86.89
2023-04-09T00:01:20.596Z,86.89
2023-04-09T00:02:15.848Z,86.90
2023-04-09T00:03:11.109Z,86.89
2023-04-09T00:04:06.460Z,86.91
2023-04-09T00:05:01.614Z,86.91
2023-04-09T00:05:56.704Z,86.84
2023-04-09T00:06:51.934Z,86.77
2023-04-09T00:07:47.148Z,86.71
2023-04-09T00:08:42.535Z,86.66
2023-04-09T00:09:37.671Z,86.61
2023-04-09T00:10:32.893Z,86.60
2023-04-09T00:11:28.286Z,86.67
2023-04-09T00:12:23.401Z,86.77
2023-04-09T00:13:28.304Z,86.79
2023-04-09T00:14:14.817Z,86.79
2023-04-09T00:15:13.021Z,86.84
2023-04-09T00:16:04.837Z,86.72
2023-04-09T00:16:58.879Z,86.56
2023-04-09T00:17:55.346Z,86.46
2023-04-09T00:18:50.889Z,86.48
2023-04-09T00:19:45.458Z,86.53
2023-04-09T00:20:40.560Z,86.59
2023-04-09T00:21:35.641Z,86.68
2023-04-09T00:22:30.790Z,86.71
2023-04-09T00:23:25.749Z,86.72
2023-04-09T00:24:21.053Z,86.68
2023-04-09T00:25:15.876Z,86.75
2023-04-09T00:26:10.958Z,86.69
2023-04-09T00:27:05.920Z,86.65
2023-04-09T00:28:01.066Z,86.63
2023-04-09T00:28:56.288Z,86.62
2023-04-09T00:29:51.284Z,86.66
2023-04-09T00:30:46.509Z,86.66
2023-04-09T00:31:41.812Z,86.67
2023-04-09T00:32:37.581Z,86.70
2023-04-09T00:33:32.997Z,86.73
2023-04-09T00:34:27.970Z,86.78
2023-04-09T00:35:24.482Z,86.82
2023-04-09T00:36:19.711Z,86.79
2023-04-09T00:37:15.529Z,86.82
2023-04-09T00:38:10.748Z,86.82
2023-04-09T00:39:05.932Z,86.81
2023-04-09T00:40:01.685Z,86.71
2023-04-09T00:40:56.956Z,86.44
2023-04-09T00:41:52.741Z,86.29
2023-04-09T00:42:48.007Z,86.19
2023-04-09T00:43:43.408Z,86.16
2023-04-09T00:44:39.066Z,86.08
2023-04-09T00:45:34.341Z,86.00
2023-04-09T00:46:29.592Z,85.96
2023-04-09T00:47:25.962Z,85.94
2023-04-09T00:48:21.209Z,86.00
2023-04-09T00:49:16.971Z,86.07
2023-04-09T00:50:12.233Z,86.12
2023-04-09T00:51:07.454Z,86.20
2023-04-09T00:52:03.290Z,86.36
2023-04-09T00:52:58.701Z,86.45
2023-04-09T00:53:54.497Z,86.43
2023-04-09T00:54:49.581Z,86.46
2023-04-09T00:55:44.979Z,86.52
2023-04-09T00:56:40.783Z,86.61
2023-04-09T00:57:36.057Z,86.82
2023-04-09T00:58:31.548Z,86.91
2023-04-09T00:59:27.527Z,86.82
2023-04-09T01:00:22.878Z,86.73
2023-04-09T01:01:18.603Z,86.56
2023-04-09T01:02:13.702Z,86.43
2023-04-09T01:03:09.142Z,86.30
2023-04-09T01:04:04.961Z,86.18
2023-04-09T01:05:00.147Z,86.00
2023-04-09T01:05:55.960Z,85.89
2023-04-09T01:06:51.324Z,85.79
2023-04-09T01:07:46.567Z,85.66
2023-04-09T01:08:42.406Z,85.57
2023-04-09T01:09:37.494Z,85.59
2023-04-09T01:10:32.766Z,85.70
2023-04-09T01:11:28.949Z,85.66
2023-04-09T01:12:24.228Z,85.54
2023-04-09T01:13:20.014Z,85.49
2023-04-09T01:14:15.415Z,85.56
2023-04-09T01:15:10.415Z,85.61
2023-04-09T01:16:06.250Z,85.59
2023-04-09T01:17:01.441Z,85.56
2023-04-09T01:17:57.305Z,85.60
2023-04-09T01:18:52.884Z,85.67
2023-04-09T01:19:47.763Z,85.77
2023-04-09T01:20:43.515Z,85.86
2023-04-09T01:21:38.793Z,85.92
2023-04-09T01:22:34.001Z,85.94
2023-04-09T01:23:30.369Z,86.01
2023-04-09T01:24:25.770Z,86.01
2023-04-09T01:25:21.477Z,86.02
2023-04-09T01:26:16.668Z,86.11
2023-04-09T01:27:11.943Z,86.32
2023-04-09T01:28:07.740Z,86.42
2023-04-09T01:29:03.188Z,86.37
2023-04-09T01:29:58.946Z,86.36
2023-04-09T01:30:54.111Z,86.36
2023-04-09T01:31:49.371Z,86.35
2023-04-09T01:32:44.660Z,86.38
2023-04-09T01:33:40.005Z,86.40
2023-04-09T01:34:36.342Z,86.51
2023-04-09T01:35:31.629Z,86.61
2023-04-09T01:36:27.407Z,86.70
2023-04-09T01:37:22.615Z,86.70
2023-04-09T01:38:17.887Z,86.69
2023-04-09T01:39:13.837Z,86.72
2023-04-09T01:40:08.994Z,86.73
2023-04-09T01:41:04.226Z,86.71
2023-04-09T01:42:00.617Z,86.56
2023-04-09T01:42:55.835Z,86.50
2023-04-09T01:43:51.667Z,86.46
2023-04-09T01:44:46.782Z,86.39
2023-04-09T01:45:42.041Z,86.37
2023-04-09T01:46:37.857Z,86.46
2023-04-09T01:47:33.143Z,86.58
2023-04-09T01:48:29.054Z,86.58
2023-04-09T01:49:24.349Z,86.54
2023-04-09T01:50:19.280Z,86.43
2023-04-09T01:51:14.537Z,86.36
2023-04-09T01:52:09.763Z,86.31
2023-04-09T01:53:05.305Z,86.27
2023-04-09T01:54:00.600Z,86.29
2023-04-09T01:54:55.713Z,86.33
2023-04-09T01:55:51.005Z,86.39
2023-04-09T01:56:47.317Z,86.51
2023-04-09T01:57:42.543Z,86.64
2023-04-09T01:58:37.688Z,86.61
2023-04-09T01:59:37.305Z,86.60
2023-04-09T02:00:32.395Z,86.59
2023-04-09T02:01:27.667Z,86.57
2023-04-09T02:02:23.069Z,86.48
2023-04-09T02:03:18.049Z,86.51
2023-04-09T02:04:13.116Z,86.49
2023-04-09T02:05:08.128Z,86.44
2023-04-09T02:06:03.215Z,86.43
2023-04-09T02:06:58.232Z,86.56
2023-04-09T02:07:53.287Z,86.39
2023-04-09T02:08:48.426Z,86.30
2023-04-09T02:09:43.559Z,86.27
2023-04-09T02:10:38.535Z,86.37
2023-04-09T02:11:33.525Z,86.26
2023-04-09T02:12:28.736Z,86.39
2023-04-09T02:13:23.944Z,86.49
2023-04-09T02:14:19.060Z,86.58
2023-04-09T02:15:14.210Z,86.64
2023-04-09T02:16:09.221Z,86.66
2023-04-09T02:17:04.150Z,86.64
2023-04-09T02:17:59.318Z,86.65
2023-04-09T02:18:54.493Z,86.69
2023-04-09T02:19:49.367Z,86.75
2023-04-09T02:20:44.309Z,86.80
2023-04-09T02:21:39.338Z,86.82
2023-04-09T02:22:34.330Z,86.86
2023-04-09T02:23:30.815Z,86.90
2023-04-09T02:24:25.772Z,86.98
2023-04-09T02:25:20.960Z,87.07
2023-04-09T02:26:15.803Z,87.12
2023-04-09T02:27:10.946Z,87.19
2023-04-09T02:28:05.911Z,87.28
2023-04-09T02:29:01.049Z,87.29
2023-04-09T02:29:56.041Z,87.33
2023-04-09T02:30:51.096Z,87.46
2023-04-09T02:31:46.033Z,87.56
2023-04-09T02:32:41.115Z,87.52
2023-04-09T02:33:36.191Z,87.47
2023-04-09T02:34:32.207Z,87.35
2023-04-09T02:35:27.147Z,87.31
2023-04-09T02:36:22.531Z,87.22
2023-04-09T02:37:18.202Z,87.13
2023-04-09T02:38:13.486Z,87.10
2023-04-09T02:39:09.279Z,87.06
2023-04-09T02:40:04.679Z,87.05
2023-04-09T02:40:59.935Z,87.07
2023-04-09T02:41:55.629Z,87.03
2023-04-09T02:42:50.862Z,87.02
2023-04-09T02:43:46.134Z,87.08
2023-04-09T02:44:42.489Z,87.11
2023-04-09T02:45:37.681Z,87.22
2023-04-09T02:46:33.573Z,87.30
2023-04-09T02:47:28.694Z,87.28
2023-04-09T02:48:23.771Z,87.20
2023-04-09T02:49:19.788Z,87.08
2023-04-09T02:50:14.790Z,87.00
2023-04-09T02:51:10.585Z,86.98
2023-04-09T02:52:05.776Z,86.99
2023-04-09T02:53:01.080Z,87.11
2023-04-09T02:53:57.030Z,87.17
2023-04-09T02:54:52.173Z,87.10
2023-04-09T02:55:47.362Z,87.03
2023-04-09T02:56:43.730Z,86.95
2023-04-09T02:57:38.956Z,86.90
2023-04-09T02:58:34.770Z,86.89
2023-04-09T02:59:30.176Z,86.93
2023-04-09T03:00:25.311Z,86.93
2023-04-09T03:01:21.163Z,86.97
2023-04-09T03:02:16.479Z,87.08
2023-04-09T03:03:12.486Z,87.18
2023-04-09T03:04:07.672Z,87.17
2023-04-09T03:05:02.663Z,87.17
2023-04-09T03:05:58.510Z,87.15
2023-04-09T03:06:53.748Z,87.05
2023-04-09T03:07:49.115Z,86.98
2023-04-09T03:08:45.241Z,86.99
2023-04-09T03:09:40.658Z,86.97
2023-04-09T03:10:36.320Z,86.88
2023-04-09T03:11:31.561Z,86.79
2023-04-09T03:12:26.917Z,86.76
2023-04-09T03:13:22.624Z,86.80
2023-04-09T03:14:17.896Z,86.71
2023-04-09T03:15:13.726Z,86.70
2023-04-09T03:16:08.949Z,86.70
2023-04-09T03:17:04.348Z,86.72
2023-04-09T03:18:00.062Z,86.78
2023-04-09T03:18:55.315Z,86.72
2023-04-09T03:19:50.399Z,86.72
2023-04-09T03:20:46.880Z,86.65
2023-04-09T03:21:42.132Z,86.62
2023-04-09T03:22:37.365Z,86.55
2023-04-09T03:23:32.591Z,86.50
2023-04-09T03:24:28.614Z,86.61
2023-04-09T03:25:23.602Z,86.67
2023-04-09T03:26:19.419Z,86.82
2023-04-09T03:27:14.598Z,86.95
2023-04-09T03:28:09.987Z,87.04
2023-04-09T03:29:05.852Z,87.05
2023-04-09T03:30:00.956Z,86.99
2023-04-09T03:30:56.094Z,86.97
2023-04-09T03:31:52.547Z,86.83
2023-04-09T03:32:47.840Z,86.73
2023-04-09T03:33:43.805Z,86.66
2023-04-09T03:34:38.721Z,86.52
2023-04-09T03:35:34.058Z,86.51
2023-04-09T03:36:29.812Z,86.43
2023-04-09T03:37:25.111Z,86.36
2023-04-09T03:38:20.904Z,86.29
2023-04-09T03:39:16.303Z,86.26
2023-04-09T03:40:11.250Z,86.20
2023-04-09T03:41:06.500Z,86.13
2023-04-09T03:42:01.971Z,86.05
2023-04-09T03:42:57.028Z,85.92
2023-04-09T03:43:52.416Z,85.72
2023-04-09T03:44:48.120Z,85.64
2023-04-09T03:45:43.334Z,85.61
2023-04-09T03:46:38.816Z,85.57
2023-04-09T03:47:34.345Z,85.65
2023-04-09T03:48:29.754Z,85.90
2023-04-09T03:49:24.756Z,86.04
2023-04-09T03:50:19.999Z,86.14
2023-04-09T03:51:14.952Z,86.12
2023-04-09T03:52:10.094Z,86.14
2023-04-09T03:53:05.074Z,86.08
2023-04-09T03:54:00.351Z,86.10
2023-04-09T03:54:55.332Z,86.21
2023-04-09T03:55:50.602Z,86.01
2023-04-09T03:56:45.564Z,85.96
2023-04-09T03:57:40.678Z,85.94
2023-04-09T03:58:35.770Z,86.07
2023-04-09T03:59:30.763Z,85.99
2023-04-09T04:00:25.720Z,86.07
2023-04-09T04:01:20.831Z,86.10
2023-04-09T04:02:15.855Z,86.29
2023-04-09T04:03:11.161Z,86.35
2023-04-09T04:04:06.098Z,86.42
2023-04-09T04:05:01.033Z,86.40
2023-04-09T04:05:56.101Z,86.37
2023-04-09T04:06:55.119Z,86.37
2023-04-09T04:07:50.199Z,86.43
2023-04-09T04:08:45.434Z,86.40
2023-04-09T04:09:40.249Z,86.30
2023-04-09T04:10:35.517Z,86.24
2023-04-09T04:11:30.702Z,86.18
2023-04-09T04:12:25.806Z,86.14
2023-04-09T04:13:21.075Z,86.22
2023-04-09T04:14:15.971Z,86.37
2023-04-09T04:15:10.918Z,86.42
2023-04-09T04:16:06.050Z,86.37
2023-04-09T04:17:01.018Z,86.38
2023-04-09T04:17:56.163Z,86.36
2023-04-09T04:18:51.420Z,86.36
2023-04-09T04:19:46.163Z,86.44
2023-04-09T04:20:41.250Z,86.40
2023-04-09T04:21:40.591Z,86.43
2023-04-09T04:22:31.421Z,86.46
2023-04-09T04:23:29.156Z,86.44
2023-04-09T04:24:23.968Z,86.43
2023-04-09T04:25:19.132Z,86.37
2023-04-09T04:26:14.084Z,86.39
2023-04-09T04:27:09.159Z,86.41
2023-04-09T04:28:04.268Z,86.35
2023-04-09T04:28:59.254Z,86.34
2023-04-09T04:29:54.221Z,86.32
2023-04-09T04:30:49.293Z,86.34
2023-04-09T04:31:44.340Z,86.39
2023-04-09T04:32:39.412Z,86.29
2023-04-09T04:33:35.578Z,86.35
2023-04-09T04:34:30.713Z,86.36
2023-04-09T04:35:25.885Z,86.25
2023-04-09T04:36:21.198Z,86.10
2023-04-09T04:37:16.475Z,85.89
2023-04-09T04:38:11.979Z,85.68
2023-04-09T04:39:06.971Z,85.56
2023-04-09T04:40:02.326Z,85.64
2023-04-09T04:40:57.498Z,85.74
2023-04-09T04:41:52.870Z,85.77
2023-04-09T04:42:48.354Z,85.97
2023-04-09T04:43:43.481Z,86.06
2023-04-09T04:44:38.662Z,86.22
2023-04-09T04:45:34.060Z,86.23
2023-04-09T04:46:29.110Z,86.36
2023-04-09T04:47:24.243Z,86.38
2023-04-09T04:48:19.213Z,86.54
2023-04-09T04:49:14.338Z,86.44
2023-04-09T04:50:09.387Z,86.34
2023-04-09T04:51:04.416Z,86.32
2023-04-09T04:51:59.394Z,86.35
2023-04-09T04:52:54.445Z,86.21
2023-04-09T04:53:49.403Z,86.00
2023-04-09T04:54:44.540Z,85.84
2023-04-09T04:55:40.125Z,85.84
2023-04-09T04:56:35.132Z,85.97
2023-04-09T04:57:30.270Z,86.10
2023-04-09T04:58:25.362Z,86.17
2023-04-09T04:59:20.315Z,86.25
2023-04-09T05:00:15.410Z,86.37
2023-04-09T05:01:10.486Z,86.50
2023-04-09T05:02:05.707Z,86.52
2023-04-09T05:03:00.766Z,86.50
2023-04-09T05:03:55.970Z,86.52
2023-04-09T05:04:50.903Z,86.53
2023-04-09T05:05:47.120Z,86.76
2023-04-09T05:06:42.461Z,86.53
2023-04-09T05:07:37.785Z,86.30
2023-04-09T05:08:33.021Z,86.22
2023-04-09T05:09:28.449Z,86.25
2023-04-09T05:10:23.721Z,86.40
2023-04-09T05:11:19.304Z,86.34
2023-04-09T05:12:14.412Z,86.26
2023-04-09T05:13:09.843Z,86.17
2023-04-09T05:14:05.081Z,86.14
2023-04-09T05:15:00.685Z,86.14
2023-04-09T05:15:55.825Z,86.18
2023-04-09T05:16:51.492Z,86.28
2023-04-09T05:17:46.622Z,86.36
2023-04-09T05:18:41.891Z,86.33
2023-04-09T05:19:37.168Z,86.40
2023-04-09T05:20:32.455Z,86.53
2023-04-09T05:21:27.935Z,86.61
2023-04-09T05:22:23.234Z,86.64
2023-04-09T05:23:18.385Z,86.75
2023-04-09T05:24:13.850Z,86.90
2023-04-09T05:25:09.130Z,86.96
2023-04-09T05:26:04.560Z,87.03
2023-04-09T05:26:59.951Z,87.24
2023-04-09T05:27:57.390Z,87.53
2023-04-09T05:28:52.981Z,87.75
2023-04-09T05:29:48.006Z,87.96
2023-04-09T05:30:43.425Z,88.04
2023-04-09T05:31:39.163Z,88.12
2023-04-09T05:32:34.362Z,88.12
2023-04-09T05:33:29.680Z,88.15
2023-04-09T05:34:24.997Z,88.17
2023-04-09T05:35:20.051Z,88.26
2023-04-09T05:36:15.167Z,88.23
2023-04-09T05:37:10.560Z,88.25
2023-04-09T05:38:05.585Z,88.17
2023-04-09T05:39:00.687Z,88.07
2023-04-09T05:39:55.726Z,88.07
2023-04-09T05:40:50.846Z,87.97
2023-04-09T05:41:46.071Z,87.96
2023-04-09T05:42:41.049Z,87.94
2023-04-09T05:43:36.101Z,87.92
2023-04-09T05:44:31.157Z,88.03
2023-04-09T05:45:26.209Z,88.12
2023-04-09T05:46:21.348Z,88.16
2023-04-09T05:47:16.494Z,88.18
2023-04-09T05:48:13.477Z,88.14
2023-04-09T05:49:08.551Z,88.18
2023-04-09T05:50:03.615Z,88.17
2023-04-09T05:51:00.488Z,88.11
2023-04-09T05:51:53.886Z,87.97
2023-04-09T05:52:48.849Z,87.95
2023-04-09T05:53:43.963Z,87.93
2023-04-09T05:54:38.982Z,87.76
2023-04-09T05:55:34.048Z,87.59
2023-04-09T05:56:29.120Z,87.66
2023-04-09T05:57:24.298Z,87.68
2023-04-09T05:58:19.256Z,87.83
2023-04-09T05:59:14.300Z,87.83
2023-04-09T06:00:09.370Z,87.84
2023-04-09T06:01:04.417Z,87.85
2023-04-09T06:02:00.146Z,87.93
2023-04-09T06:02:55.300Z,87.97
2023-04-09T06:03:51.052Z,87.98
2023-04-09T06:04:46.193Z,87.96
2023-04-09T06:05:41.592Z,87.85
2023-04-09T06:06:37.120Z,87.71
2023-04-09T06:07:32.436Z,87.63
2023-04-09T06:08:27.780Z,87.56
2023-04-09T06:09:23.307Z,87.49
2023-04-09T06:10:18.707Z,87.39
2023-04-09T06:11:18.169Z,87.25
2023-04-09T06:12:13.583Z,87.17
2023-04-09T06:13:08.973Z,87.00
2023-04-09T06:14:04.354Z,86.85
2023-04-09T06:14:59.747Z,86.75
2023-04-09T06:15:55.273Z,86.64
2023-04-09T06:16:50.708Z,86.57
2023-04-09T06:17:45.951Z,86.45
2023-04-09T06:18:41.348Z,86.25
2023-04-09T06:19:36.702Z,85.91
2023-04-09T06:20:32.377Z,85.71
2023-04-09T06:21:27.968Z,85.61
2023-04-09T06:22:23.262Z,85.46
2023-04-09T06:23:18.606Z,85.42
2023-04-09T06:24:14.002Z,85.28
2023-04-09T06:25:09.088Z,85.26
2023-04-09T06:26:04.233Z,85.42
2023-04-09T06:26:59.367Z,85.51
2023-04-09T06:27:54.454Z,85.52
2023-04-09T06:28:49.405Z,85.43
2023-04-09T06:29:44.421Z,85.26
2023-04-09T06:30:39.500Z,85.09
2023-04-09T06:31:34.887Z,85.05
2023-04-09T06:32:35.508Z,85.28
2023-04-09T06:33:27.704Z,85.53
2023-04-09T06:34:22.578Z,85.80
2023-04-09T06:35:17.957Z,86.02
2023-04-09T06:36:14.119Z,86.16
2023-04-09T06:37:09.262Z,86.40
2023-04-09T06:38:04.607Z,86.56
2023-04-09T06:39:00.448Z,86.68
2023-04-09T06:40:00.904Z,86.69
2023-04-09T06:40:52.278Z,86.75
2023-04-09T06:41:46.731Z,86.79
2023-04-09T06:42:42.380Z,86.81
2023-04-09T06:43:37.667Z,86.90
2023-04-09T06:44:33.125Z,86.97
2023-04-09T06:45:29.317Z,86.96
2023-04-09T06:46:25.009Z,86.98
2023-04-09T06:47:20.494Z,87.06
2023-04-09T06:48:15.899Z,87.10
2023-04-09T06:49:11.244Z,87.17
2023-04-09T06:50:07.108Z,87.24
2023-04-09T06:51:02.520Z,87.18
2023-04-09T06:51:58.505Z,87.17
2023-04-09T06:52:53.695Z,87.29
2023-04-09T06:53:49.103Z,87.53
2023-04-09T06:54:44.725Z,87.98
2023-04-09T06:55:40.243Z,88.36
2023-04-09T06:56:35.842Z,88.52
2023-04-09T06:57:31.899Z,88.57
2023-04-09T06:58:27.309Z,88.56
2023-04-09T06:59:23.244Z,88.53
2023-04-09T07:00:18.622Z,88.53
2023-04-09T07:01:14.315Z,88.34
2023-04-09T07:02:09.955Z,88.28
2023-04-09T07:03:05.466Z,88.14
2023-04-09T07:04:01.274Z,88.06
2023-04-09T07:04:56.552Z,88.06
2023-04-09T07:05:51.903Z,88.08
2023-04-09T07:06:47.759Z,88.13
2023-04-09T07:07:43.119Z,88.08
2023-04-09T07:08:38.634Z,88.03
2023-04-09T07:09:34.908Z,88.01
2023-04-09T07:10:30.346Z,87.89
2023-04-09T07:11:26.339Z,87.61
2023-04-09T07:12:21.668Z,87.40
2023-04-09T07:13:17.049Z,86.99
2023-04-09T07:14:12.869Z,86.67
2023-04-09T07:15:08.212Z,86.56
2023-04-09T07:16:04.256Z,86.53
2023-04-09T07:16:59.475Z,86.49
2023-04-09T07:17:54.896Z,86.53
2023-04-09T07:18:50.696Z,86.38
2023-04-09T07:19:46.210Z,86.21
2023-04-09T07:20:41.604Z,85.99
2023-04-09T07:21:37.865Z,86.08
2023-04-09T07:22:33.271Z,86.06
2023-04-09T07:23:29.092Z,85.87
2023-04-09T07:24:24.465Z,85.91
2023-04-09T07:25:19.856Z,85.94
2023-04-09T07:26:15.813Z,86.03
2023-04-09T07:27:11.083Z,86.12
2023-04-09T07:28:06.870Z,86.01
2023-04-09T07:29:02.282Z,85.85
2023-04-09T07:29:57.851Z,85.92
2023-04-09T07:30:53.057Z,85.97
2023-04-09T07:31:48.444Z,85.98
2023-04-09T07:32:44.253Z,85.98
2023-04-09T07:33:39.629Z,85.90
2023-04-09T07:34:35.561Z,86.00
2023-04-09T07:35:30.796Z,86.09
2023-04-09T07:36:26.534Z,86.20
2023-04-09T07:37:22.204Z,86.14
2023-04-09T07:38:17.683Z,86.15
2023-04-09T07:39:13.067Z,85.89
2023-04-09T07:40:09.429Z,85.87
2023-04-09T07:41:04.948Z,85.82
2023-04-09T07:42:00.745Z,85.71
2023-04-09T07:42:56.113Z,85.34
2023-04-09T07:43:51.652Z,85.30
2023-04-09T07:44:47.368Z,85.48
2023-04-09T07:45:42.872Z,85.37
2023-04-09T07:46:38.480Z,84.94
2023-04-09T07:47:34.008Z,84.75
2023-04-09T07:48:29.213Z,84.62
2023-04-09T07:49:25.943Z,84.57
2023-04-09T07:50:21.022Z,84.86
2023-04-09T07:51:16.298Z,85.01
2023-04-09T07:52:11.484Z,85.10
2023-04-09T07:53:06.432Z,85.05
2023-04-09T07:54:01.413Z,85.06
2023-04-09T07:54:56.553Z,85.15
2023-04-09T07:55:51.681Z,85.08
2023-04-09T07:56:46.667Z,85.23
2023-04-09T07:57:41.721Z,85.33
2023-04-09T07:58:36.872Z,85.41
2023-04-09T07:59:31.883Z,85.43
2023-04-09T08:00:27.122Z,85.51
2023-04-09T08:01:21.997Z,85.53
2023-04-09T08:02:17.180Z,85.69
2023-04-09T08:03:12.348Z,85.79
2023-04-09T08:04:07.527Z,85.94
2023-04-09T08:05:02.404Z,85.86
2023-04-09T08:05:57.434Z,85.90
2023-04-09T08:06:52.372Z,85.80
2023-04-09T08:07:49.737Z,85.80
2023-04-09T08:08:44.795Z,85.83
2023-04-09T08:09:39.933Z,85.86
2023-04-09T08:10:35.109Z,85.81
2023-04-09T08:11:29.950Z,85.75
2023-04-09T08:12:24.912Z,85.76
2023-04-09T08:13:20.152Z,85.62
2023-04-09T08:14:15.129Z,85.53
2023-04-09T08:15:10.279Z,85.50
2023-04-09T08:16:05.532Z,85.57
2023-04-09T08:17:00.657Z,85.60
2023-04-09T08:17:56.051Z,85.55
2023-04-09T08:18:52.097Z,85.38
2023-04-09T08:19:47.332Z,85.39
2023-04-09T08:20:43.050Z,85.47
2023-04-09T08:21:38.569Z,85.48
2023-04-09T08:22:34.059Z,85.30
2023-04-09T08:23:29.824Z,85.29
2023-04-09T08:24:25.353Z,85.43
2023-04-09T08:25:20.734Z,85.47
2023-04-09T08:26:16.416Z,85.38
2023-04-09T08:27:11.774Z,85.21
2023-04-09T08:28:07.364Z,84.92
2023-04-09T08:29:03.497Z,84.70
2023-04-09T08:29:58.938Z,84.43
2023-04-09T08:30:54.791Z,84.40
2023-04-09T08:31:50.363Z,85.15
2023-04-09T08:32:45.961Z,84.22
2023-04-09T08:33:41.665Z,82.09
2023-04-09T08:34:37.086Z,79.65
2023-04-09T08:35:33.112Z,78.92
2023-04-09T08:36:28.304Z,77.35
2023-04-09T08:37:23.862Z,76.88
2023-04-09T08:38:19.678Z,76.21
2023-04-09T08:39:15.079Z,75.35
2023-04-09T08:40:10.599Z,74.56
2023-04-09T08:41:06.830Z,74.26
2023-04-09T08:42:02.257Z,74.92
2023-04-09T08:42:58.130Z,75.95
2023-04-09T08:44:49.427Z,76.52
2023-04-09T08:45:45.018Z,75.83
2023-04-09T08:46:40.563Z,75.19
2023-04-09T08:47:36.047Z,74.55
2023-04-09T08:48:31.546Z,73.39
2023-04-09T08:49:27.257Z,73.04
2023-04-09T08:50:23.103Z,72.91
2023-04-09T08:51:18.643Z,72.96
2023-04-09T08:52:14.104Z,73.64
2023-04-09T08:53:09.513Z,74.25
2023-04-09T08:54:05.467Z,74.31
2023-04-09T08:55:00.746Z,74.54
2023-04-09T08:55:56.163Z,74.57
2023-04-09T08:56:52.430Z,74.47
2023-04-09T08:57:47.870Z,74.20
2023-04-09T08:58:43.730Z,73.73
2023-04-09T08:59:39.255Z,73.00
2023-04-09T09:00:34.878Z,72.51
2023-04-09T09:01:30.583Z,72.48
2023-04-09T09:02:26.013Z,72.59
2023-04-09T09:03:21.851Z,73.28
2023-04-09T09:04:17.101Z,73.58
2023-04-09T09:05:12.430Z,73.80
2023-04-09T09:06:08.051Z,73.37
2023-04-09T09:07:03.549Z,71.45
2023-04-09T09:07:59.140Z,70.46
2023-04-09T09:08:58.850Z,69.24
2023-04-09T09:09:54.217Z,69.84
2023-04-09T09:10:49.458Z,69.96
2023-04-09T09:11:45.141Z,69.25
2023-04-09T09:12:40.579Z,68.75
2023-04-09T09:13:35.957Z,67.58
2023-04-09T09:14:32.500Z,66.38
2023-04-09T09:15:27.766Z,65.96
2023-04-09T09:16:23.560Z,67.13
2023-04-09T09:17:19.049Z,67.73
2023-04-09T09:18:14.511Z,68.98
2023-04-09T09:19:10.267Z,68.93
2023-04-09T09:20:05.686Z,68.54
2023-04-09T09:21:01.370Z,68.48
2023-04-09T09:21:56.776Z,67.88
2023-04-09T09:22:54.576Z,67.47
2023-04-09T09:23:47.746Z,68.81
2023-04-09T09:24:43.300Z,69.25
2023-04-09T09:25:39.271Z,69.24
2023-04-09T09:26:34.676Z,68.52
2023-04-09T09:27:30.116Z,67.69
2023-04-09T09:28:25.812Z,66.87
2023-04-09T09:29:21.588Z,66.89
2023-04-09T09:30:17.081Z,66.89
2023-04-09T09:31:12.415Z,66.98
2023-04-09T09:32:07.757Z,66.95
2023-04-09T09:33:03.478Z,65.53
2023-04-09T09:33:59.008Z,64.10
2023-04-09T09:34:54.306Z,62.44
2023-04-09T09:35:50.833Z,62.76
2023-04-09T09:36:46.190Z,61.10
2023-04-09T09:37:42.184Z,61.45
2023-04-09T09:38:37.614Z,61.38
2023-04-09T09:39:33.079Z,60.98
2023-04-09T09:40:28.915Z,60.15
2023-04-09T09:41:24.365Z,61.17
2023-04-09T09:42:20.334Z,62.37
2023-04-09T09:43:15.721Z,62.51
2023-04-09T09:44:11.191Z,61.24
2023-04-09T09:45:06.696Z,60.48
2023-04-09T09:46:02.229Z,60.73
2023-04-09T09:46:57.612Z,60.43
2023-04-09T09:47:53.982Z,59.87
2023-04-09T09:48:49.658Z,58.72
2023-04-09T09:49:45.566Z,58.46
2023-04-09T09:50:40.954Z,58.14
2023-04-09T09:51:36.421Z,57.91
2023-04-09T09:52:32.088Z,56.58
2023-04-09T09:53:27.543Z,56.19
2023-04-09T09:54:23.618Z,55.30
2023-04-09T09:55:18.766Z,55.90
2023-04-09T09:56:14.283Z,54.41
2023-04-09T09:57:09.893Z,54.22
2023-04-09T09:58:05.459Z,54.19
2023-04-09T09:59:00.982Z,55.10
2023-04-09T09:59:57.097Z,56.95
2023-04-09T10:00:52.655Z,57.62
2023-04-09T10:01:48.631Z,57.58
2023-04-09T10:02:43.951Z,57.94
2023-04-09T10:03:39.301Z,58.04
2023-04-09T10:04:35.306Z,57.92
2023-04-09T10:05:30.560Z,57.44
2023-04-09T10:06:26.240Z,55.85
2023-04-09T10:07:21.662Z,54.72
2023-04-09T10:08:17.265Z,54.47
2023-04-09T10:09:13.387Z,53.54
2023-04-09T10:10:08.433Z,54.11
2023-04-09T10:11:03.981Z,53.22
2023-04-09T10:12:00.071Z,53.56
2023-04-09T10:12:55.459Z,54.07
2023-04-09T10:13:50.956Z,55.11
2023-04-09T10:14:47.324Z,53.69
2023-04-09T10:15:42.726Z,52.90
2023-04-09T10:16:38.581Z,53.31
2023-04-09T10:17:34.112Z,53.95
2023-04-09T10:18:29.816Z,55.73
2023-04-09T10:19:25.644Z,56.12
2023-04-09T10:20:20.879Z,56.72
2023-04-09T10:21:16.641Z,57.49
2023-04-09T10:23:36.429Z,56.82
2023-04-09T10:24:31.820Z,57.46
2023-04-09T10:25:27.156Z,57.86
2023-04-09T10:26:22.554Z,58.51
2023-04-09T10:27:18.059Z,58.11
2023-04-09T10:28:13.446Z,56.79
2023-04-09T10:29:08.876Z,54.01
2023-04-09T10:30:04.485Z,52.62
2023-04-09T10:30:59.809Z,52.95
2023-04-09T10:31:55.200Z,53.35
2023-04-09T10:32:50.651Z,53.45
2023-04-09T10:33:45.992Z,53.67
2023-04-09T10:34:41.337Z,52.03
2023-04-09T10:35:36.708Z,51.66
2023-04-09T10:36:32.152Z,50.27
2023-04-09T10:37:27.552Z,49.74
2023-04-09T10:38:22.907Z,48.63
2023-04-09T10:39:18.327Z,48.15
2023-04-09T10:40:13.891Z,47.94
2023-04-09T10:41:09.115Z,48.12
2023-04-09T10:42:04.586Z,47.14
2023-04-09T10:42:59.966Z,47.64
2023-04-09T10:43:55.359Z,48.77
2023-04-09T10:44:50.785Z,47.18
2023-04-09T10:45:46.063Z,46.49
2023-04-09T10:46:41.577Z,46.18
2023-04-09T10:47:37.064Z,46.14
2023-04-09T10:48:32.381Z,46.19
2023-04-09T10:49:27.787Z,47.36
2023-04-09T10:50:24.013Z,48.18
2023-04-09T10:51:18.640Z,47.89
2023-04-09T10:52:14.137Z,47.13
2023-04-09T10:53:09.639Z,46.75
2023-04-09T10:54:04.883Z,47.35
2023-04-09T10:55:00.360Z,47.24
2023-04-09T10:55:55.729Z,47.31
2023-04-09T10:56:51.028Z,46.35
2023-04-09T10:57:46.404Z,47.07
2023-04-09T10:58:41.943Z,47.18
2023-04-09T10:59:37.440Z,45.35
2023-04-09T11:00:32.827Z,45.72
2023-04-09T11:01:28.254Z,45.10
2023-04-09T11:02:23.927Z,45.59
2023-04-09T11:03:19.428Z,45.93
2023-04-09T11:04:14.768Z,46.18
2023-04-09T11:05:10.128Z,45.74
2023-04-09T11:06:05.521Z,44.97
2023-04-09T11:07:00.858Z,44.99
2023-04-09T11:07:56.131Z,45.85
2023-04-09T11:08:51.752Z,46.52
2023-04-09T11:09:47.096Z,47.51
2023-04-09T11:10:42.278Z,48.54
2023-04-09T11:11:37.612Z,49.25
2023-04-09T11:12:32.965Z,49.70
2023-04-09T11:13:28.641Z,50.10
2023-04-09T11:14:24.304Z,49.77
2023-04-09T11:15:19.421Z,49.46
2023-04-09T11:16:24.816Z,50.39
2023-04-09T11:17:11.386Z,50.25
2023-04-09T11:18:05.712Z,49.70
2023-04-09T11:19:01.125Z,49.56
2023-04-09T11:19:56.698Z,48.83
2023-04-09T11:20:52.030Z,47.93
2023-04-09T11:21:47.419Z,46.69
2023-04-09T11:22:42.729Z,46.49
2023-04-09T11:23:38.108Z,46.51
2023-04-09T11:24:33.686Z,45.27
2023-04-09T11:25:29.051Z,44.60
2023-04-09T11:26:24.593Z,44.46
2023-04-09T11:27:19.841Z,45.15
2023-04-09T11:28:15.209Z,45.90
2023-04-09T11:29:10.687Z,46.44
2023-04-09T11:30:06.404Z,47.18
2023-04-09T11:31:01.608Z,48.35
2023-04-09T11:31:57.296Z,48.88
2023-04-09T11:32:52.711Z,48.70
2023-04-09T11:33:48.127Z,48.89
2023-04-09T11:34:43.511Z,49.00
2023-04-09T11:35:39.117Z,47.14
2023-04-09T11:36:34.200Z,46.33
2023-04-09T11:37:29.649Z,46.66
2023-04-09T11:38:25.032Z,45.72
2023-04-09T11:39:20.460Z,45.61
2023-04-09T11:40:16.052Z,46.18
2023-04-09T11:41:11.456Z,45.95
2023-04-09T11:42:06.708Z,43.93
2023-04-09T11:43:02.174Z,43.85
2023-04-09T11:43:57.558Z,43.74
2023-04-09T11:44:52.972Z,45.12
2023-04-09T11:45:48.890Z,44.99
2023-04-09T11:46:43.648Z,45.65
2023-04-09T11:47:39.264Z,45.99
2023-04-09T11:48:34.465Z,45.72
2023-04-09T11:49:29.880Z,45.70
2023-04-09T11:50:25.315Z,46.69
2023-04-09T11:51:20.937Z,45.50
2023-04-09T11:52:16.732Z,44.81
2023-04-09T11:53:12.089Z,44.67
2023-04-09T11:54:07.618Z,44.20
2023-04-09T11:55:02.897Z,44.59
2023-04-09T11:55:58.456Z,45.74